TAF

TERMINAL AERODROME FORECAST
STASIUN METEOROLOGI HANG NADIM BATAM

ADDS - METARS form results

(1049 UTC 15 November 2018)
Data provider http://aviationweather.gov/metar/data/
 
METAR text: WIDD 151000Z 00000KT 9999 FEW013 26/24 Q1010 NOSIG
Conditions at: WIDD (HANG NADIM , ID) observed 1000 UTC 15 November 2018
Temperature: 26.0°C (79°F)
Dewpoint: 24.0°C (75°F) [RH = 89%]
Pressure (altimeter): 29.82 inches Hg (1010.0 mb)
Winds: calm
Visibility: 6 or more miles (10+ km)
Ceiling: at least 12,000 feet AGL
Clouds: few clouds at 1300 feet AGL
Weather: no significant weather observed at this time

Forecast for: WIDD (HANG NADIM , ID)
Text: TAF WIDD 150500Z 1506/1606 20008KT 9999 SCT014
Forecast period: 0600 UTC 15 November 2018 to 0600 UTC 16 November 2018
Forecast type: FROM: standard forecast or significant change
Winds: from the SSW (200 degrees) at 9 MPH (8 knots; 4.1 m/s)
Visibility: 6 or more miles 10+ km)
Ceiling: at least 12,000 feet AGL
Clouds: scattered clouds at 1400 feet AGL
Weather: no significant weather forecast for this period
Text: TEMPO 1506/1509 5000 TSRA FEW013CB
Forecast period: 0600 to 0900 UTC 15 November 2018
Forecast type: TEMPORARY: The following changes expected for less than half the time period
Visibility: 3 miles (5 km)
Ceiling: at least 12,000 feet AGL
Clouds: few clouds at 1300 feet AGL
Weather: TSRA  (rain associated with thunderstorm(s))

Informasi TAF dapat diakses juga di http://aviation.bmkg.go.id